KOSU/OSU METAR and TAF weather

Enter ICAO airport designator
Station Type Date Time Source
KOSU METAR 2019/05/26 00:53 UTC NOAA

KOSU 260053Z 24004KT 10SM CLR 22/19 A3003 RMK AO2 SLP164 T02220189


Station Type Date Time Source
KOSU Decoded METAR 2019/05/26 00:53 UTC NOAA

OHIO STATE UNIVERSITY AIRPORT , OH, United States (KOSU) 40-05N 083-05W 280M
May 25, 2019 - 08:53 PM EDT / 2019.05.26 0053 UTC
Wind: from the WSW (240 degrees) at 5 MPH (4 KT):0
Visibility: 10 mile(s):0
Sky conditions: clear
Temperature: 72.0 F (22.2 C)
Dew Point: 66.0 F (18.9 C)
Relative Humidity: 81%
Pressure (altimeter): 30.03 in. Hg (1016 hPa)
ob: KOSU 260053Z 24004KT 10SM CLR 22/19 A3003 RMK AO2 SLP164 T02220189
cycle: 1

Station Type Date Time Source
KOSU TAF UTC NOAA

Error!

Example: see airport list